sensor_id;sensor_type;location;lat;lon;timestamp;temperature;humidity
11599;DHT22;5855;48.840;9.188;2023-06-04T00:02:03;15.90;99.90
11599;DHT22;5855;48.840;9.188;2023-06-04T00:04:30;16.00;99.90
11599;DHT22;5855;48.840;9.188;2023-06-04T00:06:58;15.90;99.90
11599;DHT22;5855;48.840;9.188;2023-06-04T00:09:25;15.80;99.90
11599;DHT22;5855;48.840;9.188;2023-06-04T00:11:52;15.80;99.90
11599;DHT22;5855;48.840;9.188;2023-06-04T00:14:19;15.70;99.90
11599;DHT22;5855;48.840;9.188;2023-06-04T00:16:45;15.70;99.90
11599;DHT22;5855;48.840;9.188;2023-06-04T00:19:12;15.60;99.90
11599;DHT22;5855;48.840;9.188;2023-06-04T00:21:39;15.60;99.90
11599;DHT22;5855;48.840;9.188;2023-06-04T00:24:07;15.50;99.90
11599;DHT22;5855;48.840;9.188;2023-06-04T00:26:34;15.50;99.90
11599;DHT22;5855;48.840;9.188;2023-06-04T00:29:01;15.50;99.90
11599;DHT22;5855;48.840;9.188;2023-06-04T00:31:28;15.50;99.90
11599;DHT22;5855;48.840;9.188;2023-06-04T00:33:55;15.40;99.90
11599;DHT22;5855;48.840;9.188;2023-06-04T00:36:21;15.40;99.90
11599;DHT22;5855;48.840;9.188;2023-06-04T00:38:48;15.20;99.90
11599;DHT22;5855;48.840;9.188;2023-06-04T00:41:16;15.20;99.90
11599;DHT22;5855;48.840;9.188;2023-06-04T00:43:43;15.20;99.90
11599;DHT22;5855;48.840;9.188;2023-06-04T00:46:11;15.10;99.90
11599;DHT22;5855;48.840;9.188;2023-06-04T00:48:43;15.00;99.90
11599;DHT22;5855;48.840;9.188;2023-06-04T00:51:12;14.90;99.90
11599;DHT22;5855;48.840;9.188;2023-06-04T00:53:39;14.90;99.90
11599;DHT22;5855;48.840;9.188;2023-06-04T00:56:06;14.80;99.90
11599;DHT22;5855;48.840;9.188;2023-06-04T00:58:38;14.80;99.90
11599;DHT22;5855;48.840;9.188;2023-06-04T01:01:15;14.80;99.90
11599;DHT22;5855;48.840;9.188;2023-06-04T01:03:47;14.80;99.90
11599;DHT22;5855;48.840;9.188;2023-06-04T01:06:21;14.70;99.90
11599;DHT22;5855;48.840;9.188;2023-06-04T01:08:49;14.70;99.90
11599;DHT22;5855;48.840;9.188;2023-06-04T01:11:30;14.60;99.90
11599;DHT22;5855;48.840;9.188;2023-06-04T01:13:58;14.60;99.90
11599;DHT22;5855;48.840;9.188;2023-06-04T01:16:26;14.50;99.90
11599;DHT22;5855;48.840;9.188;2023-06-04T01:18:57;14.50;99.90
11599;DHT22;5855;48.840;9.188;2023-06-04T01:21:26;14.40;99.90
11599;DHT22;5855;48.840;9.188;2023-06-04T01:23:56;14.40;99.90
11599;DHT22;5855;48.840;9.188;2023-06-04T01:26:27;14.30;99.90
11599;DHT22;5855;48.840;9.188;2023-06-04T01:28:55;14.30;99.90
11599;DHT22;5855;48.840;9.188;2023-06-04T01:31:24;14.30;99.90
11599;DHT22;5855;48.840;9.188;2023-06-04T01:33:52;14.30;99.90
11599;DHT22;5855;48.840;9.188;2023-06-04T01:36:19;14.20;99.90
11599;DHT22;5855;48.840;9.188;2023-06-04T01:38:46;14.20;99.90
11599;DHT22;5855;48.840;9.188;2023-06-04T01:41:13;14.20;99.90
11599;DHT22;5855;48.840;9.188;2023-06-04T01:43:40;14.10;99.90
11599;DHT22;5855;48.840;9.188;2023-06-04T01:46:07;14.10;99.90
11599;DHT22;5855;48.840;9.188;2023-06-04T01:48:35;14.10;99.90
11599;DHT22;5855;48.840;9.188;2023-06-04T01:51:03;14.00;99.90
11599;DHT22;5855;48.840;9.188;2023-06-04T01:53:30;14.00;99.90
11599;DHT22;5855;48.840;9.188;2023-06-04T01:55:57;14.00;99.90
11599;DHT22;5855;48.840;9.188;2023-06-04T01:58:24;14.00;99.90
11599;DHT22;5855;48.840;9.188;2023-06-04T02:00:53;14.00;99.90
11599;DHT22;5855;48.840;9.188;2023-06-04T02:03:20;14.00;99.90
11599;DHT22;5855;48.840;9.188;2023-06-04T02:05:48;14.00;99.90
11599;DHT22;5855;48.840;9.188;2023-06-04T02:08:16;14.00;99.90
11599;DHT22;5855;48.840;9.188;2023-06-04T02:10:45;13.90;99.90
11599;DHT22;5855;48.840;9.188;2023-06-04T02:13:12;13.90;99.90
11599;DHT22;5855;48.840;9.188;2023-06-04T02:15:39;13.80;99.90
11599;DHT22;5855;48.840;9.188;2023-06-04T02:18:14;13.80;99.90
11599;DHT22;5855;48.840;9.188;2023-06-04T02:20:42;13.70;99.90
11599;DHT22;5855;48.840;9.188;2023-06-04T02:23:10;13.70;99.90
11599;DHT22;5855;48.840;9.188;2023-06-04T02:25:37;13.60;99.90
11599;DHT22;5855;48.840;9.188;2023-06-04T02:28:04;13.60;99.90
11599;DHT22;5855;48.840;9.188;2023-06-04T02:30:31;13.50;99.90
11599;DHT22;5855;48.840;9.188;2023-06-04T02:32:58;13.50;99.90
11599;DHT22;5855;48.840;9.188;2023-06-04T02:35:26;13.50;99.90
11599;DHT22;5855;48.840;9.188;2023-06-04T02:37:53;13.50;99.90
11599;DHT22;5855;48.840;9.188;2023-06-04T02:40:23;13.50;99.90
11599;DHT22;5855;48.840;9.188;2023-06-04T02:42:51;13.50;99.90
11599;DHT22;5855;48.840;9.188;2023-06-04T02:45:18;13.40;99.90
11599;DHT22;5855;48.840;9.188;2023-06-04T02:47:45;13.40;99.90
11599;DHT22;5855;48.840;9.188;2023-06-04T02:50:12;13.40;99.90
11599;DHT22;5855;48.840;9.188;2023-06-04T02:52:39;13.40;99.90
11599;DHT22;5855;48.840;9.188;2023-06-04T02:55:07;13.40;99.90
11599;DHT22;5855;48.840;9.188;2023-06-04T02:57:35;13.30;99.90
11599;DHT22;5855;48.840;9.188;2023-06-04T03:00:03;13.30;99.90
11599;DHT22;5855;48.840;9.188;2023-06-04T03:02:37;13.30;99.90
11599;DHT22;5855;48.840;9.188;2023-06-04T03:05:05;13.30;99.90
11599;DHT22;5855;48.840;9.188;2023-06-04T03:07:32;13.20;99.90
11599;DHT22;5855;48.840;9.188;2023-06-04T03:09:58;13.20;99.90
11599;DHT22;5855;48.840;9.188;2023-06-04T03:12:25;13.20;99.90
11599;DHT22;5855;48.840;9.188;2023-06-04T03:14:53;13.20;99.90
11599;DHT22;5855;48.840;9.188;2023-06-04T03:17:20;13.10;99.90
11599;DHT22;5855;48.840;9.188;2023-06-04T03:19:47;13.10;99.90
11599;DHT22;5855;48.840;9.188;2023-06-04T03:22:14;13.10;99.90
11599;DHT22;5855;48.840;9.188;2023-06-04T03:24:41;13.10;99.90
11599;DHT22;5855;48.840;9.188;2023-06-04T03:27:09;13.10;99.90
11599;DHT22;5855;48.840;9.188;2023-06-04T03:29:37;13.10;99.90
11599;DHT22;5855;48.840;9.188;2023-06-04T03:32:06;13.20;99.90
11599;DHT22;5855;48.840;9.188;2023-06-04T03:34:33;13.20;99.90
11599;DHT22;5855;48.840;9.188;2023-06-04T03:37:00;13.10;99.90
11599;DHT22;5855;48.840;9.188;2023-06-04T03:39:27;13.00;99.90
11599;DHT22;5855;48.840;9.188;2023-06-04T03:41:54;13.00;99.90
11599;DHT22;5855;48.840;9.188;2023-06-04T03:44:21;12.90;99.90
11599;DHT22;5855;48.840;9.188;2023-06-04T03:46:48;13.00;99.90
11599;DHT22;5855;48.840;9.188;2023-06-04T03:49:17;13.00;99.90
11599;DHT22;5855;48.840;9.188;2023-06-04T03:51:45;13.00;99.90
11599;DHT22;5855;48.840;9.188;2023-06-04T03:54:12;13.00;99.90
11599;DHT22;5855;48.840;9.188;2023-06-04T03:56:42;13.00;99.90
11599;DHT22;5855;48.840;9.188;2023-06-04T03:59:09;13.00;99.90
11599;DHT22;5855;48.840;9.188;2023-06-04T04:01:36;13.00;99.90
11599;DHT22;5855;48.840;9.188;2023-06-04T04:04:04;13.10;99.90
11599;DHT22;5855;48.840;9.188;2023-06-04T04:06:32;13.10;99.90
11599;DHT22;5855;48.840;9.188;2023-06-04T04:08:59;13.10;99.90
11599;DHT22;5855;48.840;9.188;2023-06-04T04:11:26;13.10;99.90
11599;DHT22;5855;48.840;9.188;2023-06-04T04:13:52;13.20;99.90
11599;DHT22;5855;48.840;9.188;2023-06-04T04:16:19;13.20;99.90
11599;DHT22;5855;48.840;9.188;2023-06-04T04:18:46;13.20;99.90
11599;DHT22;5855;48.840;9.188;2023-06-04T04:21:13;13.20;99.90
11599;DHT22;5855;48.840;9.188;2023-06-04T04:23:41;13.20;99.90
11599;DHT22;5855;48.840;9.188;2023-06-04T04:26:08;13.20;99.90
11599;DHT22;5855;48.840;9.188;2023-06-04T04:28:37;13.30;99.90
11599;DHT22;5855;48.840;9.188;2023-06-04T04:31:04;13.30;99.90
11599;DHT22;5855;48.840;9.188;2023-06-04T04:33:32;13.40;99.90
11599;DHT22;5855;48.840;9.188;2023-06-04T04:36:02;13.40;99.90
11599;DHT22;5855;48.840;9.188;2023-06-04T04:38:30;13.40;99.90
11599;DHT22;5855;48.840;9.188;2023-06-04T04:41:00;13.40;99.90
11599;DHT22;5855;48.840;9.188;2023-06-04T04:43:33;13.40;99.90
11599;DHT22;5855;48.840;9.188;2023-06-04T04:45:59;13.40;99.90
11599;DHT22;5855;48.840;9.188;2023-06-04T04:48:26;13.40;99.90
11599;DHT22;5855;48.840;9.188;2023-06-04T04:50:54;13.50;99.90
11599;DHT22;5855;48.840;9.188;2023-06-04T04:53:20;13.50;99.90
11599;DHT22;5855;48.840;9.188;2023-06-04T04:55:47;13.60;99.90
11599;DHT22;5855;48.840;9.188;2023-06-04T04:58:17;13.60;99.90
11599;DHT22;5855;48.840;9.188;2023-06-04T05:00:44;13.70;99.90
11599;DHT22;5855;48.840;9.188;2023-06-04T05:03:11;13.80;99.90
11599;DHT22;5855;48.840;9.188;2023-06-04T05:05:38;13.80;99.90
11599;DHT22;5855;48.840;9.188;2023-06-04T05:08:05;13.80;99.90
11599;DHT22;5855;48.840;9.188;2023-06-04T05:10:32;13.90;99.90
11599;DHT22;5855;48.840;9.188;2023-06-04T05:13:01;14.00;99.90
11599;DHT22;5855;48.840;9.188;2023-06-04T05:15:29;14.00;99.90
11599;DHT22;5855;48.840;9.188;2023-06-04T05:17:56;14.00;99.90
11599;DHT22;5855;48.840;9.188;2023-06-04T05:20:23;14.00;99.90
11599;DHT22;5855;48.840;9.188;2023-06-04T05:22:50;14.10;99.90
11599;DHT22;5855;48.840;9.188;2023-06-04T05:25:17;14.20;99.90
11599;DHT22;5855;48.840;9.188;2023-06-04T05:27:44;14.30;99.90
11599;DHT22;5855;48.840;9.188;2023-06-04T05:30:15;14.30;99.90
11599;DHT22;5855;48.840;9.188;2023-06-04T05:32:43;14.40;99.90
11599;DHT22;5855;48.840;9.188;2023-06-04T05:35:10;14.60;99.90
11599;DHT22;5855;48.840;9.188;2023-06-04T05:37:38;14.70;99.90
11599;DHT22;5855;48.840;9.188;2023-06-04T05:40:07;14.80;99.90
11599;DHT22;5855;48.840;9.188;2023-06-04T05:42:34;14.90;99.90
11599;DHT22;5855;48.840;9.188;2023-06-04T05:45:01;15.00;99.90
11599;DHT22;5855;48.840;9.188;2023-06-04T05:47:28;15.10;99.90
11599;DHT22;5855;48.840;9.188;2023-06-04T05:49:56;15.20;99.90
11599;DHT22;5855;48.840;9.188;2023-06-04T05:52:23;15.20;99.90
11599;DHT22;5855;48.840;9.188;2023-06-04T05:54:50;15.30;99.90
11599;DHT22;5855;48.840;9.188;2023-06-04T05:57:17;15.40;99.90
11599;DHT22;5855;48.840;9.188;2023-06-04T05:59:44;15.50;99.90
11599;DHT22;5855;48.840;9.188;2023-06-04T06:02:11;15.60;99.90
11599;DHT22;5855;48.840;9.188;2023-06-04T06:04:38;15.60;99.90
11599;DHT22;5855;48.840;9.188;2023-06-04T06:07:07;15.70;99.90
11599;DHT22;5855;48.840;9.188;2023-06-04T06:09:34;15.80;99.90
11599;DHT22;5855;48.840;9.188;2023-06-04T06:12:02;15.90;99.90
11599;DHT22;5855;48.840;9.188;2023-06-04T06:14:28;15.90;99.90
11599;DHT22;5855;48.840;9.188;2023-06-04T06:16:55;16.00;99.90
11599;DHT22;5855;48.840;9.188;2023-06-04T06:19:22;16.10;99.90
11599;DHT22;5855;48.840;9.188;2023-06-04T06:21:49;16.20;99.90
11599;DHT22;5855;48.840;9.188;2023-06-04T06:24:17;16.30;99.90
11599;DHT22;5855;48.840;9.188;2023-06-04T06:26:44;16.50;99.90
11599;DHT22;5855;48.840;9.188;2023-06-04T06:29:11;16.50;99.90
11599;DHT22;5855;48.840;9.188;2023-06-04T06:31:38;16.60;99.90
11599;DHT22;5855;48.840;9.188;2023-06-04T06:34:04;16.70;99.90
11599;DHT22;5855;48.840;9.188;2023-06-04T06:36:31;16.80;99.90
11599;DHT22;5855;48.840;9.188;2023-06-04T06:38:59;17.00;99.90
11599;DHT22;5855;48.840;9.188;2023-06-04T06:41:27;17.10;99.90
11599;DHT22;5855;48.840;9.188;2023-06-04T06:43:56;17.30;99.90
11599;DHT22;5855;48.840;9.188;2023-06-04T06:46:23;17.40;99.60
11599;DHT22;5855;48.840;9.188;2023-06-04T06:48:50;17.50;99.00
11599;DHT22;5855;48.840;9.188;2023-06-04T06:51:17;17.60;98.90
11599;DHT22;5855;48.840;9.188;2023-06-04T06:53:43;17.80;98.80
11599;DHT22;5855;48.840;9.188;2023-06-04T06:56:11;17.90;98.30
11599;DHT22;5855;48.840;9.188;2023-06-04T06:58:39;18.00;98.40
11599;DHT22;5855;48.840;9.188;2023-06-04T07:01:06;18.20;98.30
11599;DHT22;5855;48.840;9.188;2023-06-04T07:03:32;18.40;98.60
11599;DHT22;5855;48.840;9.188;2023-06-04T07:05:59;18.50;98.20
11599;DHT22;5855;48.840;9.188;2023-06-04T07:08:26;18.70;97.50
11599;DHT22;5855;48.840;9.188;2023-06-04T07:10:53;18.90;97.20
11599;DHT22;5855;48.840;9.188;2023-06-04T07:13:20;19.10;97.30
11599;DHT22;5855;48.840;9.188;2023-06-04T07:15:48;19.30;96.50
11599;DHT22;5855;48.840;9.188;2023-06-04T07:18:15;19.50;96.40
11599;DHT22;5855;48.840;9.188;2023-06-04T07:20:42;19.70;95.70
11599;DHT22;5855;48.840;9.188;2023-06-04T07:23:09;20.00;95.30
11599;DHT22;5855;48.840;9.188;2023-06-04T07:25:36;20.30;94.60
11599;DHT22;5855;48.840;9.188;2023-06-04T07:28:03;20.50;93.90
11599;DHT22;5855;48.840;9.188;2023-06-04T07:30:30;20.70;93.80
11599;DHT22;5855;48.840;9.188;2023-06-04T07:32:59;20.60;92.80
11599;DHT22;5855;48.840;9.188;2023-06-04T07:35:25;20.50;93.10
11599;DHT22;5855;48.840;9.188;2023-06-04T07:37:52;20.80;93.30
11599;DHT22;5855;48.840;9.188;2023-06-04T07:40:19;21.00;92.70
11599;DHT22;5855;48.840;9.188;2023-06-04T07:42:46;21.20;91.70
11599;DHT22;5855;48.840;9.188;2023-06-04T07:45:14;21.20;91.70
11599;DHT22;5855;48.840;9.188;2023-06-04T07:47:42;21.20;91.90
11599;DHT22;5855;48.840;9.188;2023-06-04T07:50:10;21.30;91.30
11599;DHT22;5855;48.840;9.188;2023-06-04T07:52:37;21.30;91.10
11599;DHT22;5855;48.840;9.188;2023-06-04T07:55:05;21.30;90.80
11599;DHT22;5855;48.840;9.188;2023-06-04T07:57:32;21.50;91.40
11599;DHT22;5855;48.840;9.188;2023-06-04T07:59:58;21.60;91.30
11599;DHT22;5855;48.840;9.188;2023-06-04T08:02:29;21.70;90.70
11599;DHT22;5855;48.840;9.188;2023-06-04T08:04:56;21.70;90.20
11599;DHT22;5855;48.840;9.188;2023-06-04T08:07:24;21.90;90.30
11599;DHT22;5855;48.840;9.188;2023-06-04T08:09:51;22.00;89.90
11599;DHT22;5855;48.840;9.188;2023-06-04T08:12:18;22.20;89.40
11599;DHT22;5855;48.840;9.188;2023-06-04T08:14:45;22.30;89.00
11599;DHT22;5855;48.840;9.188;2023-06-04T08:17:12;22.40;88.40
11599;DHT22;5855;48.840;9.188;2023-06-04T08:19:38;22.50;88.30
11599;DHT22;5855;48.840;9.188;2023-06-04T08:22:05;22.60;87.20
11599;DHT22;5855;48.840;9.188;2023-06-04T08:24:33;22.70;88.10
11599;DHT22;5855;48.840;9.188;2023-06-04T08:27:00;22.90;87.80
11599;DHT22;5855;48.840;9.188;2023-06-04T08:29:27;23.00;86.70
11599;DHT22;5855;48.840;9.188;2023-06-04T08:31:54;23.10;86.50
11599;DHT22;5855;48.840;9.188;2023-06-04T08:34:21;23.20;86.00
11599;DHT22;5855;48.840;9.188;2023-06-04T08:36:47;23.40;85.30
11599;DHT22;5855;48.840;9.188;2023-06-04T08:39:14;23.50;85.40
11599;DHT22;5855;48.840;9.188;2023-06-04T08:41:45;23.50;83.30
11599;DHT22;5855;48.840;9.188;2023-06-04T08:44:16;23.70;83.50
11599;DHT22;5855;48.840;9.188;2023-06-04T08:46:44;23.80;83.00
11599;DHT22;5855;48.840;9.188;2023-06-04T08:49:12;23.70;82.10
11599;DHT22;5855;48.840;9.188;2023-06-04T08:51:39;23.90;81.20
11599;DHT22;5855;48.840;9.188;2023-06-04T08:54:08;24.10;82.20
11599;DHT22;5855;48.840;9.188;2023-06-04T08:56:36;24.20;80.40
11599;DHT22;5855;48.840;9.188;2023-06-04T08:59:05;24.40;81.50
11599;DHT22;5855;48.840;9.188;2023-06-04T09:01:33;24.60;79.50
11599;DHT22;5855;48.840;9.188;2023-06-04T09:04:04;24.60;78.90
11599;DHT22;5855;48.840;9.188;2023-06-04T09:06:32;24.80;78.70
11599;DHT22;5855;48.840;9.188;2023-06-04T09:09:02;25.00;76.90
11599;DHT22;5855;48.840;9.188;2023-06-04T09:11:34;25.10;77.00
11599;DHT22;5855;48.840;9.188;2023-06-04T09:14:06;25.20;75.10
11599;DHT22;5855;48.840;9.188;2023-06-04T09:16:42;25.20;74.90
11599;DHT22;5855;48.840;9.188;2023-06-04T09:19:09;25.30;74.90
11599;DHT22;5855;48.840;9.188;2023-06-04T09:21:46;25.50;74.70
11599;DHT22;5855;48.840;9.188;2023-06-04T09:24:13;25.60;73.90
11599;DHT22;5855;48.840;9.188;2023-06-04T09:26:40;25.70;73.20
11599;DHT22;5855;48.840;9.188;2023-06-04T09:29:08;25.90;71.80
11599;DHT22;5855;48.840;9.188;2023-06-04T09:31:35;26.00;71.10
11599;DHT22;5855;48.840;9.188;2023-06-04T09:34:04;26.10;68.50
11599;DHT22;5855;48.840;9.188;2023-06-04T09:36:31;26.30;67.60
11599;DHT22;5855;48.840;9.188;2023-06-04T09:38:58;26.40;67.50
11599;DHT22;5855;48.840;9.188;2023-06-04T09:41:25;26.50;66.00
11599;DHT22;5855;48.840;9.188;2023-06-04T09:43:59;26.70;65.20
11599;DHT22;5855;48.840;9.188;2023-06-04T09:46:29;26.70;64.00
11599;DHT22;5855;48.840;9.188;2023-06-04T09:49:00;27.00;63.30
11599;DHT22;5855;48.840;9.188;2023-06-04T09:51:28;27.30;62.70
11599;DHT22;5855;48.840;9.188;2023-06-04T09:53:57;27.30;60.90
11599;DHT22;5855;48.840;9.188;2023-06-04T09:56:24;27.60;59.50
11599;DHT22;5855;48.840;9.188;2023-06-04T09:58:54;27.70;58.80
11599;DHT22;5855;48.840;9.188;2023-06-04T10:01:22;27.90;56.90
11599;DHT22;5855;48.840;9.188;2023-06-04T10:03:51;28.00;58.20
11599;DHT22;5855;48.840;9.188;2023-06-04T10:06:19;28.00;56.50
11599;DHT22;5855;48.840;9.188;2023-06-04T10:08:46;28.30;55.60
11599;DHT22;5855;48.840;9.188;2023-06-04T10:11:18;28.40;54.70
11599;DHT22;5855;48.840;9.188;2023-06-04T10:13:53;28.50;52.90
11599;DHT22;5855;48.840;9.188;2023-06-04T10:16:20;28.90;50.30
11599;DHT22;5855;48.840;9.188;2023-06-04T10:18:47;28.60;50.90
11599;DHT22;5855;48.840;9.188;2023-06-04T10:21:17;28.80;50.00
11599;DHT22;5855;48.840;9.188;2023-06-04T10:23:44;28.80;49.90
11599;DHT22;5855;48.840;9.188;2023-06-04T10:26:14;29.00;50.20
11599;DHT22;5855;48.840;9.188;2023-06-04T10:28:42;29.20;49.20
11599;DHT22;5855;48.840;9.188;2023-06-04T10:31:09;29.30;47.40
11599;DHT22;5855;48.840;9.188;2023-06-04T10:33:37;29.30;46.70
11599;DHT22;5855;48.840;9.188;2023-06-04T10:36:17;29.70;45.30
11599;DHT22;5855;48.840;9.188;2023-06-04T10:38:46;29.80;44.90
11599;DHT22;5855;48.840;9.188;2023-06-04T10:41:14;30.10;43.90
11599;DHT22;5855;48.840;9.188;2023-06-04T10:43:41;30.20;41.80
11599;DHT22;5855;48.840;9.188;2023-06-04T10:46:12;30.40;41.60
11599;DHT22;5855;48.840;9.188;2023-06-04T10:48:45;30.50;41.80
11599;DHT22;5855;48.840;9.188;2023-06-04T10:51:12;30.60;40.40
11599;DHT22;5855;48.840;9.188;2023-06-04T10:53:40;30.90;38.60
11599;DHT22;5855;48.840;9.188;2023-06-04T10:56:07;31.00;38.70
11599;DHT22;5855;48.840;9.188;2023-06-04T10:58:35;30.90;39.30
11599;DHT22;5855;48.840;9.188;2023-06-04T11:01:02;31.20;38.60
11599;DHT22;5855;48.840;9.188;2023-06-04T11:03:35;31.20;37.90
11599;DHT22;5855;48.840;9.188;2023-06-04T11:06:02;31.40;36.10
11599;DHT22;5855;48.840;9.188;2023-06-04T11:08:30;31.70;36.30
11599;DHT22;5855;48.840;9.188;2023-06-04T11:10:58;32.00;34.70
11599;DHT22;5855;48.840;9.188;2023-06-04T11:13:25;32.10;33.70
11599;DHT22;5855;48.840;9.188;2023-06-04T11:15:52;32.20;34.30
11599;DHT22;5855;48.840;9.188;2023-06-04T11:18:21;32.30;34.00
11599;DHT22;5855;48.840;9.188;2023-06-04T11:20:49;32.70;32.30
11599;DHT22;5855;48.840;9.188;2023-06-04T11:23:17;32.90;31.20
11599;DHT22;5855;48.840;9.188;2023-06-04T11:25:44;33.20;30.30
11599;DHT22;5855;48.840;9.188;2023-06-04T11:28:16;33.20;30.50
11599;DHT22;5855;48.840;9.188;2023-06-04T11:30:44;33.50;30.90
11599;DHT22;5855;48.840;9.188;2023-06-04T11:33:11;33.70;29.70
11599;DHT22;5855;48.840;9.188;2023-06-04T11:35:42;33.90;29.20
11599;DHT22;5855;48.840;9.188;2023-06-04T11:38:09;34.00;28.50
11599;DHT22;5855;48.840;9.188;2023-06-04T11:40:36;34.20;28.30
11599;DHT22;5855;48.840;9.188;2023-06-04T11:43:03;34.40;27.10
11599;DHT22;5855;48.840;9.188;2023-06-04T11:45:31;34.80;27.00
11599;DHT22;5855;48.840;9.188;2023-06-04T11:47:58;34.70;25.20
11599;DHT22;5855;48.840;9.188;2023-06-04T11:50:27;34.80;26.00
11599;DHT22;5855;48.840;9.188;2023-06-04T11:52:55;35.10;25.40
11599;DHT22;5855;48.840;9.188;2023-06-04T11:55:22;35.60;25.00
11599;DHT22;5855;48.840;9.188;2023-06-04T11:57:50;35.50;25.30
11599;DHT22;5855;48.840;9.188;2023-06-04T12:00:18;35.70;24.00
11599;DHT22;5855;48.840;9.188;2023-06-04T12:02:51;36.30;23.90
11599;DHT22;5855;48.840;9.188;2023-06-04T12:05:20;37.00;22.50
11599;DHT22;5855;48.840;9.188;2023-06-04T12:07:48;37.20;22.40
11599;DHT22;5855;48.840;9.188;2023-06-04T12:10:16;37.50;21.40
11599;DHT22;5855;48.840;9.188;2023-06-04T12:12:43;37.90;20.80
11599;DHT22;5855;48.840;9.188;2023-06-04T12:15:10;38.40;20.20
11599;DHT22;5855;48.840;9.188;2023-06-04T12:17:37;38.50;19.70
11599;DHT22;5855;48.840;9.188;2023-06-04T12:20:07;38.60;18.80
11599;DHT22;5855;48.840;9.188;2023-06-04T12:22:44;38.80;18.40
11599;DHT22;5855;48.840;9.188;2023-06-04T12:25:11;39.20;17.80
11599;DHT22;5855;48.840;9.188;2023-06-04T12:27:47;39.40;17.00
11599;DHT22;5855;48.840;9.188;2023-06-04T12:30:14;39.10;17.20
11599;DHT22;5855;48.840;9.188;2023-06-04T12:32:42;39.60;16.30
11599;DHT22;5855;48.840;9.188;2023-06-04T12:35:11;40.20;16.10
11599;DHT22;5855;48.840;9.188;2023-06-04T12:37:38;40.90;15.10
11599;DHT22;5855;48.840;9.188;2023-06-04T12:40:06;40.70;15.00
11599;DHT22;5855;48.840;9.188;2023-06-04T12:42:33;41.10;14.70
11599;DHT22;5855;48.840;9.188;2023-06-04T12:45:00;41.20;14.20
11599;DHT22;5855;48.840;9.188;2023-06-04T12:47:26;41.30;13.90
11599;DHT22;5855;48.840;9.188;2023-06-04T12:49:53;41.90;13.80
11599;DHT22;5855;48.840;9.188;2023-06-04T12:52:21;42.60;13.40
11599;DHT22;5855;48.840;9.188;2023-06-04T12:54:48;42.60;12.50
11599;DHT22;5855;48.840;9.188;2023-06-04T12:57:15;41.40;12.70
11599;DHT22;5855;48.840;9.188;2023-06-04T12:59:42;41.30;13.20
11599;DHT22;5855;48.840;9.188;2023-06-04T13:02:09;41.60;12.60
11599;DHT22;5855;48.840;9.188;2023-06-04T13:04:35;41.80;12.50
11599;DHT22;5855;48.840;9.188;2023-06-04T13:07:02;42.40;12.10
11599;DHT22;5855;48.840;9.188;2023-06-04T13:09:30;42.10;11.60
11599;DHT22;5855;48.840;9.188;2023-06-04T13:12:00;42.40;11.20
11599;DHT22;5855;48.840;9.188;2023-06-04T13:14:27;42.40;11.30
11599;DHT22;5855;48.840;9.188;2023-06-04T13:16:58;41.80;11.40
11599;DHT22;5855;48.840;9.188;2023-06-04T13:19:25;41.90;11.20
11599;DHT22;5855;48.840;9.188;2023-06-04T13:21:52;42.40;10.50
11599;DHT22;5855;48.840;9.188;2023-06-04T13:24:18;41.80;10.10
11599;DHT22;5855;48.840;9.188;2023-06-04T13:26:47;42.80;10.40
11599;DHT22;5855;48.840;9.188;2023-06-04T13:29:13;43.20;10.10
11599;DHT22;5855;48.840;9.188;2023-06-04T13:31:41;43.90;10.20
11599;DHT22;5855;48.840;9.188;2023-06-04T13:34:08;43.30;10.10
11599;DHT22;5855;48.840;9.188;2023-06-04T13:36:35;43.80;9.90
11599;DHT22;5855;48.840;9.188;2023-06-04T13:39:02;43.70;8.90
11599;DHT22;5855;48.840;9.188;2023-06-04T13:41:29;42.40;9.30
11599;DHT22;5855;48.840;9.188;2023-06-04T13:43:57;42.50;9.80
11599;DHT22;5855;48.840;9.188;2023-06-04T13:46:24;42.10;9.50
11599;DHT22;5855;48.840;9.188;2023-06-04T13:48:51;42.80;10.10
11599;DHT22;5855;48.840;9.188;2023-06-04T13:51:18;43.10;9.70
11599;DHT22;5855;48.840;9.188;2023-06-04T13:53:45;43.70;9.00
11599;DHT22;5855;48.840;9.188;2023-06-04T13:56:12;43.80;8.90
11599;DHT22;5855;48.840;9.188;2023-06-04T13:58:38;43.80;8.80
11599;DHT22;5855;48.840;9.188;2023-06-04T14:01:07;43.40;7.90
11599;DHT22;5855;48.840;9.188;2023-06-04T14:03:33;43.50;8.30
11599;DHT22;5855;48.840;9.188;2023-06-04T14:06:00;43.30;8.30
11599;DHT22;5855;48.840;9.188;2023-06-04T14:08:27;43.40;8.30
11599;DHT22;5855;48.840;9.188;2023-06-04T14:10:54;43.20;8.20
11599;DHT22;5855;48.840;9.188;2023-06-04T14:13:22;42.60;8.00
11599;DHT22;5855;48.840;9.188;2023-06-04T14:15:48;42.40;8.70
11599;DHT22;5855;48.840;9.188;2023-06-04T14:18:17;41.90;8.80
11599;DHT22;5855;48.840;9.188;2023-06-04T14:20:45;41.60;8.70
11599;DHT22;5855;48.840;9.188;2023-06-04T14:23:12;42.00;8.50
11599;DHT22;5855;48.840;9.188;2023-06-04T14:25:39;42.20;8.70
11599;DHT22;5855;48.840;9.188;2023-06-04T14:28:06;42.20;8.60
11599;DHT22;5855;48.840;9.188;2023-06-04T14:30:33;42.20;8.80
11599;DHT22;5855;48.840;9.188;2023-06-04T14:32:59;42.50;9.00
11599;DHT22;5855;48.840;9.188;2023-06-04T14:35:28;42.70;7.90
11599;DHT22;5855;48.840;9.188;2023-06-04T14:37:55;42.70;8.20
11599;DHT22;5855;48.840;9.188;2023-06-04T14:40:22;42.40;8.30
11599;DHT22;5855;48.840;9.188;2023-06-04T14:42:48;42.50;8.90
11599;DHT22;5855;48.840;9.188;2023-06-04T14:45:15;42.50;8.20
11599;DHT22;5855;48.840;9.188;2023-06-04T14:47:42;42.80;8.00
11599;DHT22;5855;48.840;9.188;2023-06-04T14:50:10;42.50;8.00
11599;DHT22;5855;48.840;9.188;2023-06-04T14:52:38;42.70;7.40
11599;DHT22;5855;48.840;9.188;2023-06-04T14:55:05;42.50;7.80
11599;DHT22;5855;48.840;9.188;2023-06-04T14:57:32;42.80;7.80
11599;DHT22;5855;48.840;9.188;2023-06-04T14:59:59;43.20;7.40
11599;DHT22;5855;48.840;9.188;2023-06-04T15:02:27;43.30;7.00
11599;DHT22;5855;48.840;9.188;2023-06-04T15:04:55;43.10;6.90
11599;DHT22;5855;48.840;9.188;2023-06-04T15:07:22;43.40;6.60
11599;DHT22;5855;48.840;9.188;2023-06-04T15:09:50;43.80;6.50
11599;DHT22;5855;48.840;9.188;2023-06-04T15:12:17;43.50;6.10
11599;DHT22;5855;48.840;9.188;2023-06-04T15:14:45;43.80;6.00
11599;DHT22;5855;48.840;9.188;2023-06-04T15:17:12;43.90;5.80
11599;DHT22;5855;48.840;9.188;2023-06-04T15:19:38;44.40;5.60
11599;DHT22;5855;48.840;9.188;2023-06-04T15:22:06;44.60;5.30
11599;DHT22;5855;48.840;9.188;2023-06-04T15:24:32;44.50;4.90
11599;DHT22;5855;48.840;9.188;2023-06-04T15:27:01;45.10;5.10
11599;DHT22;5855;48.840;9.188;2023-06-04T15:29:28;44.80;5.20
11599;DHT22;5855;48.840;9.188;2023-06-04T15:31:54;44.70;5.30
11599;DHT22;5855;48.840;9.188;2023-06-04T15:34:21;44.90;4.70
11599;DHT22;5855;48.840;9.188;2023-06-04T15:36:48;44.70;5.00
11599;DHT22;5855;48.840;9.188;2023-06-04T15:39:15;44.50;4.80
11599;DHT22;5855;48.840;9.188;2023-06-04T15:41:42;43.90;5.20
11599;DHT22;5855;48.840;9.188;2023-06-04T15:44:10;43.90;5.00
11599;DHT22;5855;48.840;9.188;2023-06-04T15:46:36;43.60;5.30
11599;DHT22;5855;48.840;9.188;2023-06-04T15:49:05;43.50;5.40
11599;DHT22;5855;48.840;9.188;2023-06-04T15:51:32;43.00;5.60